Saint Simons Island, Georgia
Current Conditions -  °F | °C
As of 4:10 PM on Tuesday 25 Nov 2014 (Local Time) from KSSI Reporting Station
Moderate Rain Moderate Rain  
Wind Chill: 62°   Ceiling: 3500
Heat Index: 62°   Visibility: 4mi
Dew Point: 61°   Wind: 6mph
Humidity: 96%   Direction: 10°N
Pressure: 29.99"   Gusts: NA
Location:  31.15°N, 81.38°W
Report Text: KSSI 252110Z AUTO 01005KT 4SM RA BR FEW007 BKN035 OVC048 17/16 A2999 RMK AO2 LTG DSNT SE AND S P0007 T01670161
Loading
Personal Weather Stations






























Interactive Weather Map New forecast layout! Learn more

10-Day Weather Forecast

Advertisements
Track Severe Weather on mobile